Time;durP1;ratioP1;P1;durP2;ratioP2;P2;SDS_P1;SDS_P2;PMS_P1;PMS_P2;Temp;Humidity;BMP_temperature;BMP_pressure;BME280_temperature;BME280_humidity;BME280_pressure;Samples;Min_cycle;Max_cycle;Signal;HPM_P1;HPM_P2
2021/04/18 00:00:57;;;;;;;3.88;1.83;;;;;;;10.70;26.33;101850.00;3598084;39;20040;-72
2021/04/18 00:03:24;;;;;;;3.30;1.63;;;;;;;10.67;26.56;101852.97;3605975;39;20048;-72
2021/04/18 00:05:52;;;;;;;3.90;1.90;;;;;;;10.65;26.31;101852.19;3606516;39;20052;-72
2021/04/18 00:08:19;;;;;;;3.63;1.90;;;;;;;10.64;26.56;101852.31;3604109;39;20056;-72
2021/04/18 00:10:46;;;;;;;3.65;1.55;;;;;;;10.62;26.52;101848.81;3607788;39;20406;-72
2021/04/18 00:13:15;;;;;;;4.35;1.63;;;;;;;10.60;26.67;101848.94;3605951;39;20055;-72
2021/04/18 00:15:43;;;;;;;2.80;1.70;;;;;;;10.59;26.72;101854.50;3607161;39;20044;-71
2021/04/18 00:18:12;;;;;;;4.13;1.90;;;;;;;10.58;26.59;101842.69;3604682;39;20058;-72
2021/04/18 00:20:40;;;;;;;3.03;1.70;;;;;;;10.54;26.63;101847.47;3595229;39;20066;-72
2021/04/18 00:23:07;;;;;;;3.50;1.85;;;;;;;10.53;26.82;101848.47;3600221;39;20080;-71
2021/04/18 00:25:34;;;;;;;4.32;2.00;;;;;;;10.52;27.15;101848.59;3606948;39;20093;-73
2021/04/18 00:28:01;;;;;;;3.75;1.75;;;;;;;10.50;26.88;101845.97;3595683;40;20051;-72
2021/04/18 00:30:29;;;;;;;4.25;1.77;;;;;;;10.49;26.97;101841.47;3605029;39;20093;-72
2021/04/18 00:32:59;;;;;;;3.20;1.65;;;;;;;10.49;27.16;101843.31;3602282;39;20059;-72
2021/04/18 00:35:28;;;;;;;4.68;1.80;;;;;;;10.49;27.11;101844.22;3604360;39;20137;-72
2021/04/18 00:37:55;;;;;;;3.30;1.70;;;;;;;10.47;26.96;101840.69;3605907;39;20114;-72
2021/04/18 00:40:24;;;;;;;3.92;1.73;;;;;;;10.48;27.02;101833.38;3607742;39;20128;-72
2021/04/18 00:42:52;;;;;;;3.58;1.95;;;;;;;10.46;27.12;101840.78;3603394;39;20028;-72
2021/04/18 00:45:21;;;;;;;2.95;1.52;;;;;;;10.45;26.94;101836.34;3601956;39;20034;-72
2021/04/18 00:47:50;;;;;;;3.45;1.70;;;;;;;10.44;27.09;101838.19;3597837;39;20055;-72
2021/04/18 00:50:22;;;;;;;4.35;1.80;;;;;;;10.44;27.45;101832.72;3609866;39;20056;-72
2021/04/18 00:52:50;;;;;;;3.40;1.65;;;;;;;10.40;27.29;101839.38;3597665;39;20048;-72
2021/04/18 00:55:19;;;;;;;3.72;1.55;;;;;;;10.41;27.30;101835.66;3603784;39;20050;-72
2021/04/18 00:57:47;;;;;;;3.15;1.88;;;;;;;10.39;27.20;101837.63;3598786;39;20080;-72
2021/04/18 01:00:15;;;;;;;3.50;1.90;;;;;;;10.39;27.24;101828.53;3598267;39;20048;-72
2021/04/18 01:02:42;;;;;;;4.68;2.00;;;;;;;10.35;27.20;101825.16;3606477;39;20391;-72
2021/04/18 01:05:10;;;;;;;3.53;1.70;;;;;;;10.35;27.32;101824.28;3593985;39;20387;-72
2021/04/18 01:07:37;;;;;;;3.05;1.67;;;;;;;10.33;27.53;101828.97;3609659;39;20144;-73
2021/04/18 01:10:08;;;;;;;3.67;1.92;;;;;;;10.34;27.41;101817.06;3609183;39;20424;-72
2021/04/18 01:12:36;;;;;;;4.60;1.63;;;;;;;10.31;27.30;101820.00;3601184;39;20059;-72
2021/04/18 01:15:06;;;;;;;3.00;1.80;;;;;;;10.30;27.68;101818.25;3594542;39;20044;-72
2021/04/18 01:17:34;;;;;;;3.63;2.08;;;;;;;10.28;27.48;101817.50;3605051;39;20295;-72
2021/04/18 01:20:04;;;;;;;3.70;2.00;;;;;;;10.27;27.58;101819.34;3592728;39;20034;-72
2021/04/18 01:22:33;;;;;;;4.88;1.77;;;;;;;10.25;27.63;101809.50;3596926;39;20032;-72
2021/04/18 01:25:23;;;;;;;4.80;1.80;;;;;;;10.21;27.64;101810.69;3603637;39;20353;-72
2021/04/18 01:28:00;;;;;;;3.47;1.60;;;;;;;10.19;27.66;101809.94;3594783;40;20084;-70
2021/04/18 01:30:29;;;;;;;4.70;1.80;;;;;;;10.20;27.77;101808.97;3606948;39;20053;-70
2021/04/18 01:32:58;;;;;;;3.95;1.67;;;;;;;10.18;27.65;101806.31;3600546;39;20070;-70
2021/04/18 01:35:27;;;;;;;4.25;1.85;;;;;;;10.15;27.80;101806.53;3593796;39;20050;-70
2021/04/18 01:37:56;;;;;;;3.92;1.73;;;;;;;10.14;27.73;101797.44;3596787;39;20038;-70
2021/04/18 01:40:25;;;;;;;3.72;2.10;;;;;;;10.13;27.86;101803.88;3599131;39;20092;-70
2021/04/18 01:42:53;;;;;;;3.80;2.08;;;;;;;10.11;27.84;101808.63;3607412;39;20076;-70
2021/04/18 01:45:21;;;;;;;3.72;1.77;;;;;;;10.10;27.71;101803.25;3593922;39;20064;-72
2021/04/18 01:47:51;;;;;;;4.93;1.80;;;;;;;10.08;27.85;101808.81;3599977;39;20134;-72
2021/04/18 01:50:19;;;;;;;4.13;1.85;;;;;;;10.08;27.84;101797.88;3609076;39;20055;-72
2021/04/18 01:52:47;;;;;;;4.05;1.80;;;;;;;10.07;28.07;101797.97;3606617;39;20044;-73
2021/04/18 01:55:18;;;;;;;3.85;1.92;;;;;;;10.07;27.95;101804.31;3599041;39;20059;-72
2021/04/18 01:57:47;;;;;;;4.35;1.70;;;;;;;10.06;28.04;101807.16;3603693;39;20391;-73
2021/04/18 02:00:31;;;;;;;4.38;1.92;;;;;;;10.01;28.24;101802.03;3597764;39;20052;-71
2021/04/18 02:03:00;;;;;;;4.07;1.90;;;;;;;10.03;28.28;101797.34;3590369;40;20029;-70
2021/04/18 02:05:35;;;;;;;4.43;1.90;;;;;;;10.04;28.15;101803.69;3605858;39;20057;-70
2021/04/18 02:08:06;;;;;;;4.53;1.85;;;;;;;10.03;28.17;101793.72;3603476;39;20044;-71
2021/04/18 02:10:35;;;;;;;4.03;1.80;;;;;;;10.02;28.27;101798.31;3597917;39;20067;-70
2021/04/18 02:13:03;;;;;;;2.90;1.80;;;;;;;10.01;28.39;101791.09;3598053;39;20032;-71
2021/04/18 02:15:44;;;;;;;3.65;1.92;;;;;;;9.99;28.41;101792.16;3599034;39;20409;-71
2021/04/18 02:18:12;;;;;;;4.88;1.98;;;;;;;9.99;28.13;101793.03;3599938;39;20327;-71
2021/04/18 02:20:39;;;;;;;3.72;2.00;;;;;;;9.99;28.41;101789.44;3599163;39;20152;-71
2021/04/18 02:23:06;;;;;;;3.35;1.63;;;;;;;9.99;28.39;101794.91;3598335;39;20383;-71
2021/04/18 02:25:36;;;;;;;3.70;2.20;;;;;;;10.00;28.50;101797.53;3576306;40;20059;-71
2021/04/18 02:28:04;;;;;;;4.57;2.00;;;;;;;9.98;28.35;101790.41;3601463;39;20406;-71
2021/04/18 02:30:35;;;;;;;4.90;2.10;;;;;;;9.98;28.66;101783.09;3574454;40;20048;-71
2021/04/18 02:33:03;;;;;;;3.92;2.08;;;;;;;9.99;28.40;101792.16;3595627;39;20267;-71
2021/04/18 02:35:31;;;;;;;3.80;1.85;;;;;;;9.96;28.45;101793.25;3608058;39;20052;-71
2021/04/18 02:38:00;;;;;;;4.07;2.10;;;;;;;9.96;28.66;101789.66;3597838;39;20064;-71
2021/04/18 02:40:27;;;;;;;4.38;2.10;;;;;;;9.95;28.86;101788.78;3607374;39;20603;-71
2021/04/18 02:42:55;;;;;;;4.60;2.15;;;;;;;9.96;28.60;101787.78;3603478;39;20084;-71
2021/04/18 02:45:23;;;;;;;5.15;2.50;;;;;;;9.95;28.60;101793.38;3595582;39;20398;-71
2021/04/18 02:47:51;;;;;;;3.53;1.98;;;;;;;9.94;28.86;101800.69;3597802;40;20056;-71
2021/04/18 02:50:19;;;;;;;5.55;2.47;;;;;;;9.92;28.77;101797.19;3607165;39;20052;-71
2021/04/18 02:52:48;;;;;;;4.65;2.10;;;;;;;9.93;28.77;101800.78;3595232;39;20081;-71
2021/04/18 02:55:16;;;;;;;4.90;2.30;;;;;;;9.93;28.51;101795.34;3605217;39;20084;-71
2021/04/18 02:58:07;;;;;;;5.25;2.20;;;;;;;9.90;28.74;101792.78;3596582;39;20038;-71
2021/04/18 03:00:35;;;;;;;4.13;2.10;;;;;;;9.89;28.77;101797.38;3598114;39;20057;-71
2021/04/18 03:03:02;;;;;;;4.05;1.90;;;;;;;9.90;28.76;101803.72;3596300;39;20303;-71
2021/04/18 03:05:30;;;;;;;4.70;2.10;;;;;;;9.89;28.84;101794.66;3604823;39;20032;-71
2021/04/18 03:08:06;;;;;;;5.15;2.17;;;;;;;9.89;28.44;101791.03;3607611;39;20055;-71
2021/04/18 03:10:33;;;;;;;4.72;2.03;;;;;;;9.87;28.83;101795.75;3596883;39;20040;-71
2021/04/18 03:13:02;;;;;;;3.88;1.90;;;;;;;9.85;28.96;101787.66;3593888;40;20528;-71
2021/04/18 03:15:33;;;;;;;3.83;1.92;;;;;;;9.85;29.04;101793.13;3595161;39;20031;-71
2021/04/18 03:18:06;;;;;;;3.72;1.77;;;;;;;9.85;28.92;101794.97;3605425;39;20095;-71
2021/04/18 03:20:34;;;;;;;3.58;1.83;;;;;;;9.83;28.98;101796.94;3597987;39;20047;-71
2021/04/18 03:23:02;;;;;;;4.90;2.60;;;;;;;9.82;29.12;101792.44;3599734;39;20043;-71
2021/04/18 03:25:30;;;;;;;4.82;1.80;;;;;;;9.81;29.00;101796.16;3598247;39;20307;-71
2021/04/18 03:27:58;;;;;;;4.88;2.15;;;;;;;9.80;28.79;101784.34;3598687;39;20360;-70
2021/04/18 03:30:42;;;;;;;4.40;2.50;;;;;;;9.80;28.96;101786.19;3582428;39;20402;-71
2021/04/18 03:33:14;;;;;;;4.85;2.40;;;;;;;9.76;28.90;101789.16;3593417;39;20055;-71
2021/04/18 03:35:48;;;;;;;4.90;1.98;;;;;;;9.76;28.96;101789.16;3597385;39;20054;-71
2021/04/18 03:38:16;;;;;;;4.97;2.20;;;;;;;9.75;28.89;101784.69;3608551;39;20051;-71
2021/04/18 03:40:45;;;;;;;4.13;2.20;;;;;;;9.75;29.15;101784.69;3598840;39;20024;-71
2021/04/18 03:43:13;;;;;;;4.88;2.17;;;;;;;9.74;28.98;101782.03;3608628;39;20047;-70
2021/04/18 03:45:48;;;;;;;5.78;2.40;;;;;;;9.73;29.17;101783.91;3595747;39;20087;-71
2021/04/18 03:48:35;;;;;;;5.78;2.25;;;;;;;9.70;29.13;101777.78;3606870;39;20055;-71
2021/04/18 03:51:23;;;;;;;4.00;2.30;;;;;;;9.68;29.10;101786.09;3587318;39;20383;-70
2021/04/18 03:53:55;;;;;;;4.50;2.10;;;;;;;9.67;29.23;101778.81;3596355;39;20051;-70
2021/04/18 03:56:29;;;;;;;5.82;2.38;;;;;;;9.66;29.33;101784.38;3605891;39;20027;-70
2021/04/18 03:58:57;;;;;;;5.05;2.50;;;;;;;9.65;29.30;101785.38;3596308;39;20044;-70
2021/04/18 04:01:27;;;;;;;4.80;2.55;;;;;;;9.66;29.17;101785.25;3601506;39;20084;-71
2021/04/18 04:03:55;;;;;;;4.30;2.30;;;;;;;9.63;29.08;101788.19;3604967;39;20035;-71
2021/04/18 04:06:28;;;;;;;3.78;2.13;;;;;;;9.62;29.49;101791.06;3596346;39;20048;-70
2021/04/18 04:09:01;;;;;;;4.60;2.33;;;;;;;9.60;29.27;101795.75;3592895;39;20357;-70
2021/04/18 04:11:38;;;;;;;4.50;2.40;;;;;;;9.59;29.35;101788.53;3596591;39;20045;-70
2021/04/18 04:14:09;;;;;;;4.97;2.42;;;;;;;9.60;29.46;101793.00;3637684;22;20043;-72
2021/04/18 04:16:52;;;;;;;4.63;2.28;;;;;;;9.59;29.48;101788.53;3586379;39;20084;-73
2021/04/18 04:19:24;;;;;;;4.43;2.60;;;;;;;9.57;29.29;101785.88;3594939;39;20056;-73
2021/04/18 04:21:57;;;;;;;4.85;2.33;;;;;;;9.56;29.58;101783.25;3597576;39;20048;-71
2021/04/18 04:24:48;;;;;;;5.38;2.40;;;;;;;9.56;29.54;101784.13;3588850;39;20052;-71
2021/04/18 04:27:15;;;;;;;5.80;2.30;;;;;;;9.55;29.52;101785.09;3596519;39;20055;-73
2021/04/18 04:29:43;;;;;;;4.30;2.10;;;;;;;9.56;29.74;101786.88;3596649;39;20052;-73
2021/04/18 04:32:11;;;;;;;6.20;2.65;;;;;;;9.57;29.70;101785.00;3596945;39;20056;-70
2021/04/18 04:34:38;;;;;;;5.82;2.65;;;;;;;9.55;29.67;101781.50;3587965;40;20283;-73
2021/04/18 04:37:06;;;;;;;5.90;2.80;;;;;;;9.55;29.57;101781.50;3593144;39;20084;-73
2021/04/18 04:39:33;;;;;;;4.72;2.33;;;;;;;9.55;29.77;101784.22;3597510;39;20058;-73
2021/04/18 04:42:06;;;;;;;4.43;2.80;;;;;;;9.55;29.90;101787.84;3597283;39;20134;-73
2021/04/18 04:44:34;;;;;;;5.22;3.08;;;;;;;9.55;29.82;101792.41;3599897;39;20056;-73
2021/04/18 04:47:02;;;;;;;4.95;2.45;;;;;;;9.54;29.78;101788.84;3590549;39;20075;-73
2021/04/18 04:49:31;;;;;;;4.78;2.90;;;;;;;9.55;29.65;101784.22;3599257;39;20051;-73
2021/04/18 04:52:03;;;;;;;5.03;2.88;;;;;;;9.53;30.04;101783.47;3594456;39;20125;-73
2021/04/18 04:54:34;;;;;;;5.75;2.97;;;;;;;9.53;29.99;101780.75;3597170;39;20048;-73
2021/04/18 04:57:02;;;;;;;5.97;3.35;;;;;;;9.53;30.08;101784.34;3597462;39;20060;-73
2021/04/18 04:59:32;;;;;;;5.45;3.00;;;;;;;9.54;30.30;101786.13;3596961;39;20048;-73
2021/04/18 05:02:00;;;;;;;5.07;3.10;;;;;;;9.55;29.99;101792.41;3596882;39;20068;-73
2021/04/18 05:04:29;;;;;;;4.85;2.85;;;;;;;9.54;30.13;101796.16;3596083;39;20048;-73
2021/04/18 05:06:57;;;;;;;6.47;2.97;;;;;;;9.56;30.12;101794.19;3597530;39;20044;-72
2021/04/18 05:09:24;;;;;;;5.63;3.22;;;;;;;9.54;30.17;101790.69;3594875;39;20060;-72
2021/04/18 05:11:52;;;;;;;5.45;3.08;;;;;;;9.54;30.26;101791.56;3588269;40;20070;-72
2021/04/18 05:14:22;;;;;;;7.38;3.35;;;;;;;9.55;30.09;101796.03;3597137;39;20299;-74
2021/04/18 05:16:49;;;;;;;6.60;3.88;;;;;;;9.55;30.25;101793.31;3598540;39;20413;-73
2021/04/18 05:19:17;;;;;;;6.03;3.30;;;;;;;9.55;30.33;101801.50;3595232;39;20039;-74
2021/04/18 05:21:49;;;;;;;7.15;3.65;;;;;;;9.55;30.50;101811.53;3599387;39;20047;-74
2021/04/18 05:24:17;;;;;;;8.07;3.78;;;;;;;9.57;30.69;101815.06;3597886;39;20060;-74
2021/04/18 05:26:44;;;;;;;6.60;3.70;;;;;;;9.54;30.33;101816.16;3594857;39;20414;-74
2021/04/18 05:29:11;;;;;;;6.40;3.72;;;;;;;9.54;30.46;101812.56;3596684;39;20055;-74
2021/04/18 05:31:38;;;;;;;7.10;3.97;;;;;;;9.52;30.53;101815.38;3597419;39;20080;-75
2021/04/18 05:34:05;;;;;;;6.10;4.20;;;;;;;9.52;30.67;101812.66;3589460;39;20347;-74
2021/04/18 05:36:32;;;;;;;6.63;3.78;;;;;;;9.50;30.73;101800.94;3580989;40;20121;-74
2021/04/18 05:39:00;;;;;;;6.25;3.78;;;;;;;9.50;30.71;101809.13;3597729;39;20048;-74
2021/04/18 05:41:28;;;;;;;8.60;4.05;;;;;;;9.51;30.80;101812.75;3597517;39;20357;-74
2021/04/18 05:44:07;;;;;;;6.82;3.88;;;;;;;9.49;30.78;101815.56;3598621;39;20036;-74
2021/04/18 05:46:35;;;;;;;6.90;4.10;;;;;;;9.49;30.89;101812.84;3598204;39;20055;-74
2021/04/18 05:49:02;;;;;;;7.57;4.25;;;;;;;9.49;30.84;101810.09;3588787;39;20425;-74
2021/04/18 05:51:29;;;;;;;7.22;4.10;;;;;;;9.48;30.99;101811.09;3589907;40;20438;-74
2021/04/18 05:53:57;;;;;;;8.15;4.22;;;;;;;9.49;31.01;101812.84;3588026;39;20140;-74
2021/04/18 05:56:24;;;;;;;7.60;4.22;;;;;;;9.49;31.09;101812.84;3577886;40;20057;-74
2021/04/18 05:58:52;;;;;;;7.78;4.10;;;;;;;9.50;31.17;101817.31;3596109;39;20451;-74
2021/04/18 06:01:23;;;;;;;7.32;3.75;;;;;;;9.49;31.14;101815.56;3597170;39;20346;-75
2021/04/18 06:03:51;;;;;;;7.82;4.10;;;;;;;9.49;31.43;101823.75;3599141;39;20088;-74
2021/04/18 06:06:20;;;;;;;6.75;3.47;;;;;;;9.50;31.28;101816.44;3596770;39;20055;-74
2021/04/18 06:08:47;;;;;;;6.60;3.80;;;;;;;9.52;31.34;101828.16;3597159;39;20076;-74
2021/04/18 06:11:17;;;;;;;8.45;4.30;;;;;;;9.52;31.67;101817.22;3591717;39;20120;-74
2021/04/18 06:13:49;;;;;;;6.53;3.50;;;;;;;9.52;31.58;101830.88;3598510;39;20063;-73
2021/04/18 06:16:23;;;;;;;6.43;3.97;;;;;;;9.57;31.79;101831.44;3598304;39;20084;-73
2021/04/18 06:18:50;;;;;;;7.57;4.10;;;;;;;9.55;31.69;101830.66;3587829;40;20051;-73
2021/04/18 06:21:18;;;;;;;6.88;4.00;;;;;;;9.57;31.64;101836.91;3594499;39;20060;-73
2021/04/18 06:23:45;;;;;;;8.07;3.80;;;;;;;9.58;31.64;101830.47;3596342;39;20322;-73
2021/04/18 06:26:13;;;;;;;7.03;4.22;;;;;;;9.59;31.77;101837.69;3588363;40;20374;-73
2021/04/18 06:28:41;;;;;;;7.57;4.43;;;;;;;9.59;31.96;101837.69;3598063;39;20338;-73
2021/04/18 06:31:08;;;;;;;11.15;4.35;;;;;;;9.60;31.71;101839.44;3589511;39;20153;-73
2021/04/18 06:33:36;;;;;;;8.07;4.00;;;;;;;9.60;31.95;101840.31;3598101;39;20058;-73
2021/04/18 06:36:08;;;;;;;9.15;4.63;;;;;;;9.58;31.82;101842.28;3598320;39;20118;-73
2021/04/18 06:38:35;;;;;;;8.38;4.68;;;;;;;9.61;31.90;101841.19;3598146;39;20048;-73
2021/04/18 06:41:23;;;;;;;7.95;4.43;;;;;;;9.62;32.27;101832.03;3598294;39;20040;-73
2021/04/18 06:43:51;;;;;;;7.38;4.63;;;;;;;9.61;32.04;101833.00;3597912;39;20059;-73
2021/04/18 06:46:20;;;;;;;8.38;4.90;;;;;;;9.63;32.33;101826.44;3596787;39;20052;-73
2021/04/18 06:48:50;;;;;;;7.75;4.45;;;;;;;9.63;32.28;101825.59;3588981;40;20048;-74
2021/04/18 06:51:20;;;;;;;7.05;4.10;;;;;;;9.62;32.21;101824.72;3580183;40;20359;-75
2021/04/18 06:53:48;;;;;;;7.47;4.35;;;;;;;9.64;32.29;101830.94;3593312;40;20062;-75
2021/04/18 06:56:17;;;;;;;7.70;4.80;;;;;;;9.65;32.30;101826.34;3603545;39;20052;-79
2021/04/18 06:58:47;;;;;;;7.28;4.47;;;;;;;9.66;32.33;101822.63;3595570;40;20044;-79
2021/04/18 07:01:14;;;;;;;9.90;5.28;;;;;;;9.65;32.49;101818.16;3597247;40;20400;-79
2021/04/18 07:03:42;;;;;;;8.55;4.70;;;;;;;9.66;32.49;101808.97;3597507;40;20051;-79
2021/04/18 07:06:11;;;;;;;8.25;4.60;;;;;;;9.67;32.56;101802.53;3604037;40;20298;-75
2021/04/18 07:08:38;;;;;;;7.00;4.13;;;;;;;9.66;32.59;101801.66;3598676;40;20044;-75
2021/04/18 07:11:11;;;;;;;9.93;5.00;;;;;;;9.70;33.11;101808.72;3589393;39;20058;-75
2021/04/18 07:13:39;;;;;;;;;;;;;;;9.42;33.40;101803.31;3599452;39;20069;-75
2021/04/18 07:16:24;;;;;;;8.77;4.70;;;;;;;9.68;33.52;101801.56;3598957;39;19932;-75
2021/04/18 07:18:53;;;;;;;8.23;4.35;;;;;;;9.70;32.84;101807.84;3599694;40;20048;-75
2021/04/18 07:21:21;;;;;;;8.65;4.97;;;;;;;9.74;32.88;101807.50;3590054;40;20036;-74
2021/04/18 07:23:49;;;;;;;8.30;4.68;;;;;;;9.77;32.99;101811.91;3599726;40;20028;-76
2021/04/18 07:26:23;;;;;;;7.93;4.60;;;;;;;9.80;32.91;101808.06;3591147;39;20114;-74
2021/04/18 07:28:52;;;;;;;9.48;4.93;;;;;;;9.80;33.01;101806.22;3604690;39;20031;-77
2021/04/18 07:31:32;;;;;;;9.07;5.68;;;;;;;9.86;33.37;101814.00;3606926;39;20120;-75
2021/04/18 07:34:02;;;;;;;8.15;4.20;;;;;;;9.86;33.09;101822.22;3604035;39;20324;-74
2021/04/18 07:36:31;;;;;;;8.52;4.55;;;;;;;9.90;33.16;101831.06;3598978;40;20353;-75
2021/04/18 07:38:59;;;;;;;10.93;6.15;;;;;;;9.90;33.17;101829.22;3599021;40;20052;-75
2021/04/18 07:41:26;;;;;;;9.55;5.32;;;;;;;9.93;33.23;101831.75;3589505;40;20048;-75
2021/04/18 07:43:54;;;;;;;7.90;4.68;;;;;;;9.97;33.42;101835.13;3599882;39;20043;-76
2021/04/18 07:46:22;;;;;;;6.88;4.40;;;;;;;9.99;33.42;101831.31;3600496;40;20092;-76
2021/04/18 07:48:50;;;;;;;7.00;4.68;;;;;;;10.04;33.45;101828.28;3603167;40;20036;-77
2021/04/18 07:51:19;;;;;;;9.20;5.13;;;;;;;10.08;33.45;101833.41;3602961;39;20036;-76
2021/04/18 07:53:47;;;;;;;10.60;5.40;;;;;;;10.13;33.55;101825.75;3602032;40;20036;-76
2021/04/18 07:56:15;;;;;;;7.28;4.80;;;;;;;10.18;33.54;101825.47;3601928;40;20344;-78
2021/04/18 07:58:45;;;;;;;8.65;5.10;;;;;;;10.24;33.60;101832.34;3590563;40;20334;-76
2021/04/18 08:01:31;;;;;;;;;;;;;;;;;;;;;
2021/04/18 08:04:24;;;;;;;9.40;4.10;;;;;;;10.31;33.40;101811.78;3603143;40;20032;-76
2021/04/18 08:06:53;;;;;;;8.40;4.45;;;;;;;10.37;33.42;101819.59;3592759;40;20032;-76
2021/04/18 08:09:23;;;;;;;8.02;4.95;;;;;;;10.42;33.44;101811.91;3602191;40;20065;-76
2021/04/18 08:12:16;;;;;;;10.70;4.57;;;;;;;10.44;33.83;101804.50;3602257;39;20064;-76
2021/04/18 08:14:49;;;;;;;8.15;4.22;;;;;;;10.49;33.86;101811.38;3592190;40;20052;-75
2021/04/18 08:17:18;;;;;;;8.75;4.60;;;;;;;10.54;33.32;101809.19;3599642;40;20025;-75
2021/04/18 08:19:55;;;;;;;9.38;5.30;;;;;;;10.63;33.67;101812.25;3599767;40;20387;-75
2021/04/18 08:22:23;;;;;;;8.10;5.05;;;;;;;10.64;33.42;101816.72;3600172;40;20041;-75
2021/04/18 08:25:08;;;;;;;9.27;5.28;;;;;;;10.68;33.98;101821.91;3590917;40;20042;-75
2021/04/18 08:28:00;;;;;;;11.55;5.43;;;;;;;10.72;33.77;101820.66;3599900;40;20036;-74
2021/04/18 08:30:29;;;;;;;8.40;5.00;;;;;;;10.73;33.54;101816.06;3599797;39;20064;-74
2021/04/18 08:32:56;;;;;;;9.90;5.40;;;;;;;10.81;33.12;101813.66;3599418;40;20036;-74
2021/04/18 08:35:26;;;;;;;9.15;5.75;;;;;;;10.88;33.55;101813.13;3599715;40;20037;-75
2021/04/18 08:38:20;;;;;;;9.57;5.60;;;;;;;10.94;34.08;101809.09;3599667;40;20077;-75
2021/04/18 08:40:48;;;;;;;9.35;5.13;;;;;;;10.98;33.44;101807.88;3599491;39;20062;-74
2021/04/18 08:43:17;;;;;;;9.48;5.40;;;;;;;11.05;33.54;101806.44;3599639;40;20039;-75
2021/04/18 08:45:48;;;;;;;9.98;5.72;;;;;;;11.12;33.71;101806.84;3581896;40;20035;-75
2021/04/18 08:48:16;;;;;;;10.00;6.40;;;;;;;11.14;33.53;101800.28;3589701;40;20032;-75
2021/04/18 08:50:55;;;;;;;10.98;5.97;;;;;;;11.23;33.73;101805.09;3599172;39;20280;-75
2021/04/18 08:53:22;;;;;;;9.45;5.28;;;;;;;11.24;33.36;101809.56;3599180;40;20047;-76
2021/04/18 08:55:55;;;;;;;9.73;5.88;;;;;;;11.32;33.43;101808.13;3599890;40;20055;-75
2021/04/18 08:58:35;;;;;;;;;;;;;;;11.06;33.82;101804.56;3601444;40;20036;-75
2021/04/18 09:01:04;;;;;;;11.35;5.55;;;;;;;11.34;32.67;101818.00;3600525;39;20366;-75
2021/04/18 09:03:33;;;;;;;9.20;6.38;;;;;;;11.39;32.97;101813.03;3600801;40;20032;-75
2021/04/18 09:06:03;;;;;;;12.02;5.93;;;;;;;11.45;32.96;101820.78;3600503;40;20068;-76
2021/04/18 09:08:33;;;;;;;11.50;6.80;;;;;;;11.47;32.82;101810.59;3599982;40;20032;-75
2021/04/18 09:11:05;;;;;;;12.57;6.88;;;;;;;11.52;33.09;101807.53;3592128;40;20068;-75
2021/04/18 09:13:33;;;;;;;10.88;5.78;;;;;;;11.50;33.01;101817.72;3601061;40;20072;-75
2021/04/18 09:16:01;;;;;;;8.73;5.90;;;;;;;11.55;32.75;101815.50;3600694;40;20040;-75
2021/04/18 09:18:28;;;;;;;11.52;5.78;;;;;;;11.57;32.62;101814.41;3591386;40;20372;-75
2021/04/18 09:21:14;;;;;;;10.85;5.65;;;;;;;11.61;32.77;101817.75;3601060;39;20109;-77
2021/04/18 09:24:14;;;;;;;8.75;5.72;;;;;;;11.63;32.84;101815.78;3600559;40;20036;-76
2021/04/18 09:26:54;;;;;;;8.98;4.45;;;;;;;11.65;32.67;101824.78;3584026;40;20028;-75
2021/04/18 09:29:23;;;;;;;7.63;4.82;;;;;;;11.64;32.44;101815.69;3590013;40;20064;-75
2021/04/18 09:31:59;;;;;;;9.20;5.45;;;;;;;11.71;32.87;101820.69;3599741;39;20073;-75
2021/04/18 09:34:28;;;;;;;9.65;4.82;;;;;;;11.68;32.47;101818.19;3591334;40;20481;-75
2021/04/18 09:36:57;;;;;;;9.35;5.35;;;;;;;11.71;32.48;101826.16;3601118;40;20036;-75
2021/04/18 09:39:29;;;;;;;8.00;4.78;;;;;;;11.73;32.61;101819.59;3600417;40;20310;-75
2021/04/18 09:41:58;;;;;;;7.80;4.95;;;;;;;11.71;32.60;101827.03;3600511;39;20033;-75
2021/04/18 09:44:29;;;;;;;11.23;5.40;;;;;;;11.73;32.62;101836.03;3591081;40;20044;-75
2021/04/18 09:47:00;;;;;;;7.47;4.72;;;;;;;11.74;32.66;101823.19;3600464;40;20049;-74
2021/04/18 09:49:41;;;;;;;9.40;5.32;;;;;;;11.75;32.54;101830.44;3600940;40;20033;-75
2021/04/18 09:52:09;;;;;;;10.20;5.25;;;;;;;11.75;32.82;101827.69;3591435;40;20032;-75
2021/04/18 09:54:37;;;;;;;10.55;5.18;;;;;;;11.78;32.58;101824.69;3590723;40;20036;-75
2021/04/18 09:57:23;;;;;;;10.45;5.43;;;;;;;11.81;32.97;101827.22;3591163;40;20054;-75
2021/04/18 10:00:06;;;;;;;9.20;4.85;;;;;;;11.80;32.82;101817.25;3601420;39;20365;-74
2021/04/18 10:02:34;;;;;;;8.85;5.43;;;;;;;11.79;32.64;101820.97;3592879;39;20128;-74
2021/04/18 10:05:22;;;;;;;8.77;5.00;;;;;;;11.80;32.77;101822.72;3610281;39;20032;-75
2021/04/18 10:07:50;;;;;;;7.97;4.72;;;;;;;11.81;32.39;101816.25;3597380;39;20039;-75
2021/04/18 10:10:32;;;;;;;7.30;5.00;;;;;;;11.86;32.87;101822.25;3602989;39;20413;-76
2021/04/18 10:13:00;;;;;;;10.40;4.57;;;;;;;11.84;32.58;101810.56;3602389;39;20041;-75
2021/04/18 10:15:28;;;;;;;7.50;4.20;;;;;;;11.84;32.70;101822.41;3638887;22;20054;-70
2021/04/18 10:17:55;;;;;;;7.97;4.40;;;;;;;11.85;32.64;101817.78;3609566;39;20072;-71
2021/04/18 10:20:24;;;;;;;8.65;4.35;;;;;;;11.88;32.62;101812.03;3600195;39;20027;-71
2021/04/18 10:23:05;;;;;;;7.95;3.80;;;;;;;11.92;32.53;101811.75;3608614;39;20044;-69
2021/04/18 10:25:36;;;;;;;8.07;4.22;;;;;;;11.92;32.50;101819.09;3609141;39;20052;-69
2021/04/18 10:28:05;;;;;;;5.57;3.78;;;;;;;11.93;32.76;101810.75;3599378;39;20051;-69
2021/04/18 10:30:32;;;;;;;6.97;3.80;;;;;;;11.94;32.52;101812.47;3603575;39;20052;-70
2021/04/18 10:33:15;;;;;;;9.40;4.28;;;;;;;11.94;32.25;101809.72;3607681;39;20047;-68
2021/04/18 10:35:42;;;;;;;8.30;4.65;;;;;;;11.94;32.24;101806.13;3580320;40;20048;-72
2021/04/18 10:38:09;;;;;;;7.35;4.13;;;;;;;11.98;32.53;101803.03;3576572;40;20031;-72
2021/04/18 10:40:37;;;;;;;7.60;4.63;;;;;;;11.99;32.43;101810.28;3579467;40;20032;-70
2021/04/18 10:43:06;;;;;;;7.93;5.18;;;;;;;12.01;32.24;101800.06;3579895;40;20036;-69
2021/04/18 10:45:35;;;;;;;7.07;4.82;;;;;;;12.03;32.54;101806.28;3569870;40;20793;-72
2021/04/18 10:48:04;;;;;;;9.23;5.13;;;;;;;12.04;32.40;101799.81;3569985;40;20100;-68
2021/04/18 10:50:31;;;;;;;8.32;5.00;;;;;;;12.06;32.52;101796.06;3572958;40;20430;-71
2021/04/18 10:52:59;;;;;;;7.78;4.88;;;;;;;12.09;32.41;101798.59;3562534;40;20033;-71
2021/04/18 10:55:27;;;;;;;8.02;5.00;;;;;;;12.10;32.32;101795.69;3574899;40;20085;-72
2021/04/18 10:57:55;;;;;;;8.60;5.13;;;;;;;12.13;32.50;101795.47;3575133;40;20029;-72
2021/04/18 11:00:27;;;;;;;8.80;5.28;;;;;;;12.17;32.30;101799.75;3578768;40;20042;-72
2021/04/18 11:02:55;;;;;;;7.65;4.78;;;;;;;12.16;32.45;101797.13;3579282;40;20029;-73
2021/04/18 11:05:23;;;;;;;9.13;5.15;;;;;;;12.20;32.44;101798.59;3579093;40;20602;-73
2021/04/18 11:07:50;;;;;;;7.68;4.65;;;;;;;12.23;32.29;101793.78;3579132;40;20040;-74
2021/04/18 11:10:19;;;;;;;8.77;5.07;;;;;;;12.27;32.33;101786.16;3579183;40;20069;-71
2021/04/18 11:12:49;;;;;;;8.47;4.83;;;;;;;12.27;31.89;101783.41;3590441;40;20036;-72
2021/04/18 11:15:17;;;;;;;7.15;4.72;;;;;;;12.31;31.92;101784.94;3602780;39;20334;-72
2021/04/18 11:17:46;;;;;;;7.75;4.85;;;;;;;12.35;32.40;101775.44;3601186;39;20039;-72
2021/04/18 11:20:14;;;;;;;8.25;5.45;;;;;;;12.38;32.14;101777.97;3602990;39;20036;-73
2021/04/18 11:22:42;;;;;;;7.85;5.30;;;;;;;12.40;32.26;101767.75;3601057;40;20449;-70
2021/04/18 11:25:12;;;;;;;8.13;5.20;;;;;;;12.46;32.27;101775.47;3608744;39;20032;-73
2021/04/18 11:27:41;;;;;;;11.43;5.50;;;;;;;12.49;32.48;101774.38;3610760;39;20557;-72
2021/04/18 11:30:14;;;;;;;8.40;5.30;;;;;;;12.59;32.50;101767.16;3594064;40;20565;-72
2021/04/18 11:32:42;;;;;;;8.32;5.35;;;;;;;12.65;32.39;101761.16;3545646;40;20037;-73
2021/04/18 11:35:11;;;;;;;10.52;5.40;;;;;;;12.74;32.65;101752.19;3599256;40;20044;-73
2021/04/18 11:37:39;;;;;;;9.20;5.70;;;;;;;12.82;32.44;101755.16;3600846;40;20036;-70
2021/04/18 11:40:14;;;;;;;8.73;5.43;;;;;;;12.94;32.33;101748.69;3591336;39;20403;-72
2021/04/18 11:42:41;;;;;;;8.73;5.25;;;;;;;13.01;32.42;101749.06;3611700;39;20040;-71
2021/04/18 11:45:10;;;;;;;10.38;5.15;;;;;;;13.14;32.67;101744.31;3611343;39;20039;-72